Time;durP1;ratioP1;P1;durP2;ratioP2;P2;SDS_P1;SDS_P2;PMS_P1;PMS_P2;Temp;Humidity;BMP_temperature;BMP_pressure;BME280_temperature;BME280_humidity;BME280_pressure;Samples;Min_cycle;Max_cycle;Signal;HPM_P1;HPM_P2
2023/09/14 00:00:13;;;;;;;3.90;2.90;;;;;;;24.33;67.15;100723.16;5070647;28;20189;-66
2023/09/14 00:02:38;;;;;;;6.60;3.80;;;;;;;24.32;67.54;100721.53;5095234;28;21169;-66
2023/09/14 00:05:05;;;;;;;3.90;3.00;;;;;;;24.33;67.05;100713.69;5103478;28;20433;-66
2023/09/14 00:07:32;;;;;;;3.70;3.30;;;;;;;24.32;66.99;100715.75;5092758;28;20536;-66
2023/09/14 00:09:57;;;;;;;5.40;3.17;;;;;;;24.33;67.43;100716.59;5072075;28;20469;-66
2023/09/14 00:12:23;;;;;;;4.53;3.27;;;;;;;24.33;67.32;100710.81;5092288;28;20476;-66
2023/09/14 00:14:48;;;;;;;3.83;3.00;;;;;;;24.31;67.22;100717.00;5085751;28;20187;-66
2023/09/14 00:17:13;;;;;;;5.07;3.17;;;;;;;24.31;67.09;100725.66;5067350;28;20194;-66
2023/09/14 00:19:39;;;;;;;4.70;3.17;;;;;;;24.30;67.32;100721.13;5090082;28;20235;-65
2023/09/14 00:22:04;;;;;;;3.70;2.90;;;;;;;24.31;67.03;100722.75;5085646;28;20586;-66
2023/09/14 00:24:30;;;;;;;4.97;3.70;;;;;;;24.30;67.14;100731.81;5083981;28;20590;-66
2023/09/14 00:26:55;;;;;;;4.73;3.30;;;;;;;24.30;67.35;100728.94;5090755;28;20174;-65
2023/09/14 00:29:21;;;;;;;4.40;3.27;;;;;;;24.30;67.03;100724.00;5082867;28;20199;-66
2023/09/14 00:31:46;;;;;;;5.87;3.53;;;;;;;24.29;67.06;100725.22;5090857;28;20190;-66
2023/09/14 00:34:11;;;;;;;3.33;2.60;;;;;;;24.30;67.15;100734.72;5090853;28;20169;-66
2023/09/14 00:36:37;;;;;;;6.47;3.50;;;;;;;24.30;67.22;100729.78;5090218;28;20183;-65
2023/09/14 00:39:03;;;;;;;4.50;3.47;;;;;;;24.29;67.58;100728.09;5082907;28;20166;-66
2023/09/14 00:41:29;;;;;;;4.13;3.40;;;;;;;24.28;67.22;100729.34;5084666;28;20218;-65
2023/09/14 00:43:54;;;;;;;5.90;3.50;;;;;;;24.29;67.38;100728.09;5091803;28;20495;-65
2023/09/14 00:46:19;;;;;;;3.63;2.93;;;;;;;24.28;67.34;100732.22;5060262;28;20637;-66
2023/09/14 00:48:45;;;;;;;4.80;3.40;;;;;;;24.29;67.19;100733.88;5065516;28;20205;-66
2023/09/14 00:51:10;;;;;;;4.10;3.07;;;;;;;24.28;67.16;100732.22;5070707;28;20174;-66
2023/09/14 00:53:36;;;;;;;4.10;3.20;;;;;;;24.28;67.18;100720.69;5088998;28;20190;-66
2023/09/14 00:56:01;;;;;;;5.20;3.93;;;;;;;24.27;67.23;100721.94;5089225;28;20965;-66
2023/09/14 00:58:27;;;;;;;4.30;3.20;;;;;;;24.27;67.36;100721.09;5090077;28;20186;-65
2023/09/14 01:00:52;;;;;;;4.90;3.33;;;;;;;24.26;66.90;100717.41;5073903;28;20194;-66
2023/09/14 01:03:18;;;;;;;6.50;3.53;;;;;;;24.26;67.02;100717.41;5072186;28;20169;-66
2023/09/14 01:05:44;;;;;;;5.17;3.23;;;;;;;24.26;66.85;100717.41;5091949;28;20178;-66
2023/09/14 01:08:09;;;;;;;5.80;3.50;;;;;;;24.26;67.05;100723.16;5085987;28;20724;-66
2023/09/14 01:10:34;;;;;;;4.70;3.67;;;;;;;24.26;67.34;100723.16;5057739;28;20210;-66
2023/09/14 01:13:00;;;;;;;5.00;3.70;;;;;;;24.25;67.16;100718.63;5070106;28;20227;-65
2023/09/14 01:15:28;;;;;;;4.57;3.53;;;;;;;24.25;67.18;100718.63;5088403;28;20201;-66
2023/09/14 01:17:57;;;;;;;4.87;3.80;;;;;;;24.25;67.13;100720.69;5090869;28;20193;-66
2023/09/14 01:20:55;;;;;;;4.63;3.60;;;;;;;24.24;66.96;100719.03;5065839;28;20456;-65
2023/09/14 01:23:49;;;;;;;5.73;4.20;;;;;;;24.25;66.99;100723.56;5027751;28;20426;-66
2023/09/14 01:26:17;;;;;;;4.30;3.43;;;;;;;24.23;67.18;100723.97;5049726;28;20389;-66
2023/09/14 01:28:43;;;;;;;4.73;3.33;;;;;;;24.24;67.11;100731.38;5070120;28;20444;-66
2023/09/14 01:31:08;;;;;;;5.60;3.73;;;;;;;24.23;67.01;100729.75;5087329;28;21296;-65
2023/09/14 01:33:34;;;;;;;4.20;3.20;;;;;;;24.22;67.29;100728.09;5069737;28;20982;-66
2023/09/14 01:36:18;;;;;;;3.50;2.73;;;;;;;24.22;67.04;100725.22;5082079;28;21216;-65
2023/09/14 01:38:43;;;;;;;4.97;3.87;;;;;;;24.23;66.55;100726.06;5055914;28;20248;-65
2023/09/14 01:41:09;;;;;;;5.33;3.53;;;;;;;24.23;67.19;100731.81;5088239;28;20440;-66
2023/09/14 01:43:34;;;;;;;4.87;3.80;;;;;;;24.21;67.01;100726.47;5088567;28;20197;-66
2023/09/14 01:46:01;;;;;;;4.50;4.07;;;;;;;24.21;67.09;100729.34;5087825;28;20208;-62
2023/09/14 01:48:26;;;;;;;3.90;3.50;;;;;;;24.21;67.54;100720.69;5101458;28;20175;-62
2023/09/14 01:50:51;;;;;;;4.60;3.83;;;;;;;24.22;66.96;100733.03;5078253;28;20482;-63
2023/09/14 01:53:17;;;;;;;3.80;3.40;;;;;;;24.20;66.84;100730.59;5070600;28;20171;-61
2023/09/14 01:55:42;;;;;;;4.70;2.70;;;;;;;24.21;66.99;100732.22;5082693;28;20190;-62
2023/09/14 01:58:09;;;;;;;5.87;3.27;;;;;;;24.20;66.92;100730.59;5089220;28;20188;-62
2023/09/14 02:00:34;;;;;;;4.00;3.30;;;;;;;24.20;67.06;100729.75;5093938;28;20182;-62
2023/09/14 02:03:00;;;;;;;5.17;4.17;;;;;;;24.19;67.20;100731.78;5108896;28;20850;-62
2023/09/14 02:05:25;;;;;;;4.57;3.80;;;;;;;24.19;66.92;100731.00;5097841;28;20626;-62
2023/09/14 02:07:51;;;;;;;3.80;2.90;;;;;;;24.19;66.86;100736.75;5082726;28;20198;-63
2023/09/14 02:10:17;;;;;;;5.30;3.37;;;;;;;24.19;66.80;100734.69;5056816;28;20238;-62
2023/09/14 02:12:42;;;;;;;3.70;3.30;;;;;;;24.19;66.87;100731.00;5057982;28;20235;-62
2023/09/14 02:15:08;;;;;;;4.20;3.30;;;;;;;24.18;66.69;100729.34;5086901;28;20667;-62
2023/09/14 02:17:34;;;;;;;4.03;3.53;;;;;;;24.19;66.74;100734.69;5088555;28;20183;-62
2023/09/14 02:19:59;;;;;;;5.53;3.80;;;;;;;24.18;66.79;100733.03;5077146;28;20432;-62
2023/09/14 02:22:25;;;;;;;6.37;3.60;;;;;;;24.17;66.89;100719.84;5085978;28;20190;-62
2023/09/14 02:24:51;;;;;;;4.07;3.30;;;;;;;24.17;66.94;100722.72;5088791;28;20171;-61
2023/09/14 02:27:16;;;;;;;4.03;2.90;;;;;;;24.17;66.77;100725.63;5089350;28;20167;-62
2023/09/14 02:29:41;;;;;;;4.83;3.93;;;;;;;24.17;67.07;100725.63;5089625;28;20203;-62
2023/09/14 02:32:07;;;;;;;3.70;2.80;;;;;;;24.17;66.71;100728.50;5088147;28;20202;-62
2023/09/14 02:34:33;;;;;;;5.57;3.90;;;;;;;24.16;66.72;100732.63;5085402;28;20975;-62
2023/09/14 02:36:58;;;;;;;3.77;3.00;;;;;;;24.16;66.84;100729.75;5096269;28;20548;-62
2023/09/14 02:39:23;;;;;;;3.70;3.20;;;;;;;24.16;66.54;100726.03;5090888;28;20178;-62
2023/09/14 02:41:49;;;;;;;4.53;3.10;;;;;;;24.16;66.76;100734.69;5080157;28;20194;-62
2023/09/14 02:44:14;;;;;;;4.20;3.63;;;;;;;24.14;66.80;100737.97;5072300;28;20163;-62
2023/09/14 02:46:40;;;;;;;3.37;3.07;;;;;;;24.15;66.55;100730.16;5106662;28;20189;-62
2023/09/14 02:49:05;;;;;;;4.63;3.40;;;;;;;24.15;66.55;100733.03;5112300;28;20250;-62
2023/09/14 02:51:31;;;;;;;5.43;3.17;;;;;;;24.14;66.36;100719.84;5073864;28;20190;-62
2023/09/14 02:53:56;;;;;;;4.37;3.40;;;;;;;24.14;66.78;100720.66;5073931;28;20182;-63
2023/09/14 02:56:21;;;;;;;4.80;3.37;;;;;;;24.14;66.70;100728.50;5091366;28;20216;-66
2023/09/14 02:58:47;;;;;;;5.70;3.47;;;;;;;24.13;66.42;100726.84;5092842;28;20231;-66
2023/09/14 03:01:12;;;;;;;4.33;3.03;;;;;;;24.12;66.52;100722.28;5083062;28;20186;-66
2023/09/14 03:03:38;;;;;;;4.90;3.33;;;;;;;24.12;66.66;100725.19;5074221;28;20166;-66
2023/09/14 03:06:04;;;;;;;4.47;3.07;;;;;;;24.12;66.67;100730.94;5094376;28;20192;-66
2023/09/14 03:08:30;;;;;;;3.80;2.80;;;;;;;24.12;66.49;100733.84;5092814;28;20262;-66
2023/09/14 03:10:56;;;;;;;3.93;2.90;;;;;;;24.12;66.36;100733.84;5073605;28;20511;-66
2023/09/14 03:13:22;;;;;;;8.40;3.50;;;;;;;24.12;66.36;100731.78;5093790;28;20857;-66
2023/09/14 03:15:55;;;;;;;4.20;3.00;;;;;;;24.10;66.43;100731.38;5092321;28;20182;-66
2023/09/14 03:18:20;;;;;;;3.93;3.10;;;;;;;24.11;66.41;100737.97;5064813;28;20198;-66
2023/09/14 03:20:46;;;;;;;4.00;2.90;;;;;;;24.10;66.41;100731.38;5088253;28;20929;-66
2023/09/14 03:23:11;;;;;;;4.53;3.40;;;;;;;24.10;66.55;100736.31;5094084;28;20209;-65
2023/09/14 03:25:37;;;;;;;3.90;2.80;;;;;;;24.10;66.51;100737.16;5091917;28;20321;-66
2023/09/14 03:28:02;;;;;;;5.77;2.83;;;;;;;24.09;66.40;100732.59;5092351;28;20170;-66
2023/09/14 03:30:28;;;;;;;4.10;2.67;;;;;;;24.09;66.20;100741.25;5093006;28;20233;-65
2023/09/14 03:32:53;;;;;;;4.13;3.13;;;;;;;24.09;66.34;100741.25;5091470;28;20820;-66
2023/09/14 03:35:19;;;;;;;3.70;2.90;;;;;;;24.09;66.53;100741.25;5092092;28;20181;-66
2023/09/14 03:37:44;;;;;;;3.60;2.73;;;;;;;24.08;66.51;100736.72;5096526;28;20185;-66
2023/09/14 03:40:10;;;;;;;3.53;2.83;;;;;;;24.07;66.16;100732.19;5107182;28;20174;-66
2023/09/14 03:42:35;;;;;;;4.53;2.87;;;;;;;24.07;66.26;100720.66;5074095;28;20175;-66
2023/09/14 03:45:02;;;;;;;4.40;3.03;;;;;;;24.07;65.89;100740.84;5076002;28;20175;-66
2023/09/14 03:47:27;;;;;;;4.40;2.90;;;;;;;24.07;66.19;100737.13;5064504;28;20647;-66
2023/09/14 03:49:52;;;;;;;3.20;2.70;;;;;;;24.06;66.01;100742.09;5077094;28;20464;-66
2023/09/14 03:52:18;;;;;;;3.47;2.80;;;;;;;24.05;66.40;100749.09;5097989;28;20197;-66
2023/09/14 03:54:43;;;;;;;4.53;2.63;;;;;;;24.06;66.23;100749.91;5106913;28;20185;-66
2023/09/14 03:57:14;;;;;;;3.43;2.47;;;;;;;24.04;66.02;100738.75;5092609;28;20175;-66
2023/09/14 03:59:42;;;;;;;4.70;2.70;;;;;;;24.05;66.19;100743.31;5091654;28;20215;-66
2023/09/14 04:02:11;;;;;;;5.57;2.87;;;;;;;24.05;66.40;100743.31;5059089;28;20516;-66
2023/09/14 04:04:40;;;;;;;4.07;2.30;;;;;;;24.04;66.17;100744.53;5093036;28;20429;-66
2023/09/14 04:07:06;;;;;;;3.53;2.53;;;;;;;24.04;65.99;100741.66;5071138;28;20420;-62
2023/09/14 04:09:31;;;;;;;4.13;2.90;;;;;;;24.04;66.24;100744.53;5098947;28;20477;-62
2023/09/14 04:11:57;;;;;;;3.73;2.60;;;;;;;24.04;66.08;100749.50;5093217;28;20724;-62
2023/09/14 04:14:22;;;;;;;3.90;2.80;;;;;;;24.03;66.10;100748.66;5082814;28;20175;-62
2023/09/14 04:16:48;;;;;;;4.20;2.83;;;;;;;24.03;66.00;100748.66;5097738;28;20181;-62
2023/09/14 04:19:14;;;;;;;3.20;2.47;;;;;;;24.03;65.99;100754.44;5091038;28;20254;-62
2023/09/14 04:21:41;;;;;;;3.87;2.60;;;;;;;24.03;65.85;100765.97;5078745;28;20259;-62
2023/09/14 04:24:07;;;;;;;3.33;2.63;;;;;;;24.03;66.08;100759.41;5072491;28;20392;-62
2023/09/14 04:26:33;;;;;;;4.27;2.30;;;;;;;24.02;65.80;100757.72;5055946;28;20436;-62
2023/09/14 04:28:58;;;;;;;4.10;2.90;;;;;;;24.02;65.95;100766.38;5109277;28;20185;-63
2023/09/14 04:31:25;;;;;;;3.63;2.73;;;;;;;24.00;65.77;100761.03;5095435;28;20506;-62
2023/09/14 04:33:50;;;;;;;4.30;2.57;;;;;;;24.00;66.25;100763.91;5081547;28;20320;-62
2023/09/14 04:36:16;;;;;;;3.73;2.80;;;;;;;24.00;65.86;100768.84;5100046;28;21232;-62
2023/09/14 04:38:41;;;;;;;5.03;2.67;;;;;;;24.01;65.75;100773.38;5092533;28;20215;-62
2023/09/14 04:41:07;;;;;;;3.20;2.43;;;;;;;24.00;65.67;100774.63;5087830;28;20186;-63
2023/09/14 04:43:32;;;;;;;3.30;2.30;;;;;;;24.00;65.71;100777.50;5089158;28;20231;-62
2023/09/14 04:46:00;;;;;;;2.40;1.90;;;;;;;23.99;65.58;100775.84;5086687;28;20187;-62
2023/09/14 04:48:25;;;;;;;3.73;2.50;;;;;;;23.98;65.98;100772.13;5069314;28;20186;-62
2023/09/14 04:50:51;;;;;;;3.37;2.17;;;;;;;23.98;65.64;100777.09;5060051;28;20459;-62
2023/09/14 04:53:17;;;;;;;4.43;2.30;;;;;;;23.98;65.81;100786.56;5089007;28;20174;-63
2023/09/14 04:55:45;;;;;;;3.13;2.30;;;;;;;23.97;65.57;100784.91;5085492;28;20481;-62
2023/09/14 04:58:10;;;;;;;4.43;2.60;;;;;;;23.97;65.44;100782.03;5081342;28;20228;-62
2023/09/14 05:00:36;;;;;;;3.13;2.20;;;;;;;23.97;65.56;100786.94;5058732;28;20432;-62
2023/09/14 05:03:04;;;;;;;3.13;2.07;;;;;;;23.96;65.22;100786.16;5094532;28;20189;-62
2023/09/14 05:05:33;;;;;;;3.53;2.50;;;;;;;23.97;65.48;100784.06;5089637;28;20428;-62
2023/09/14 05:07:59;;;;;;;3.73;2.27;;;;;;;23.96;65.36;100794.81;5069766;28;20528;-62
2023/09/14 05:10:25;;;;;;;2.90;2.00;;;;;;;23.95;65.27;100793.16;5074033;28;20469;-62
2023/09/14 05:12:51;;;;;;;5.03;2.50;;;;;;;23.94;65.33;100791.47;5103384;28;20874;-63
2023/09/14 05:15:17;;;;;;;3.70;2.40;;;;;;;23.95;65.29;100801.81;5077954;28;20441;-66
2023/09/14 05:17:43;;;;;;;3.63;2.30;;;;;;;23.94;65.18;100794.38;5089888;28;20186;-66
2023/09/14 05:20:09;;;;;;;4.03;2.10;;;;;;;23.93;64.37;100795.59;5066532;28;20921;-66
2023/09/14 05:22:35;;;;;;;3.90;2.30;;;;;;;24.02;64.52;100798.94;5059692;28;20215;-66
2023/09/14 05:25:00;;;;;;;3.47;2.20;;;;;;;24.19;65.22;100797.34;5048910;28;20420;-66
2023/09/14 05:27:25;;;;;;;11.20;3.70;;;;;;;24.27;66.93;100799.00;5072992;28;20217;-67
2023/09/14 05:29:51;;;;;;;6.50;2.50;;;;;;;24.19;64.35;100803.94;5070787;28;20968;-66
2023/09/14 05:32:17;;;;;;;5.00;2.10;;;;;;;24.03;63.22;100797.69;5088418;28;20190;-66
2023/09/14 05:34:42;;;;;;;6.43;2.60;;;;;;;23.98;62.69;100808.81;5075932;28;20198;-66
2023/09/14 05:37:08;;;;;;;4.40;2.10;;;;;;;23.94;62.90;100808.78;5099710;28;20181;-66
2023/09/14 05:39:33;;;;;;;6.07;2.13;;;;;;;23.94;62.42;100811.66;5036654;28;20165;-66
2023/09/14 05:41:59;;;;;;;4.43;2.13;;;;;;;23.91;62.01;100809.63;5087022;28;20185;-66
2023/09/14 05:44:24;;;;;;;5.87;2.20;;;;;;;23.82;61.60;100811.16;5068445;28;20174;-66
2023/09/14 05:46:49;;;;;;;5.20;2.00;;;;;;;23.82;60.91;100823.53;5085364;28;20174;-66
2023/09/14 05:49:15;;;;;;;8.63;2.20;;;;;;;23.77;60.13;100821.03;5057375;28;20202;-66
2023/09/14 05:51:40;;;;;;;8.83;2.20;;;;;;;23.76;60.00;100836.69;5050426;28;20179;-65
2023/09/14 05:54:06;;;;;;;4.90;2.10;;;;;;;23.74;59.96;100833.38;5034372;28;20167;-66
2023/09/14 05:56:34;;;;;;;5.73;1.63;;;;;;;23.72;59.68;100829.25;5070114;28;20178;-66
2023/09/14 05:59:00;;;;;;;5.97;2.47;;;;;;;23.88;60.43;100824.81;5087374;28;20174;-65
2023/09/14 06:01:25;;;;;;;7.10;2.47;;;;;;;23.97;60.33;100821.56;5064422;28;20455;-66
2023/09/14 06:03:51;;;;;;;6.53;2.07;;;;;;;23.94;60.82;100826.09;5070589;28;20178;-66
2023/09/14 06:06:16;;;;;;;10.07;2.70;;;;;;;23.88;59.73;100824.81;5063928;28;20247;-67
2023/09/14 06:08:42;;;;;;;5.37;2.27;;;;;;;23.82;59.47;100832.19;5067894;28;20547;-66
2023/09/14 06:11:07;;;;;;;5.97;2.23;;;;;;;23.79;59.41;100835.88;5079115;28;20218;-66
2023/09/14 06:13:33;;;;;;;5.73;2.27;;;;;;;23.79;58.70;100835.88;5066413;28;20208;-66
2023/09/14 06:15:58;;;;;;;5.70;1.97;;;;;;;23.85;60.13;100828.50;5063230;28;20187;-66
2023/09/14 06:18:23;;;;;;;4.17;2.03;;;;;;;23.85;60.08;100834.28;5082979;28;20190;-67
2023/09/14 06:20:49;;;;;;;4.90;2.10;;;;;;;23.87;60.44;100836.72;5090318;28;20189;-67
2023/09/14 06:23:15;;;;;;;9.93;1.77;;;;;;;23.77;58.81;100846.16;5053246;28;20183;-66
2023/09/14 06:25:40;;;;;;;5.67;2.10;;;;;;;23.73;58.46;100837.50;5081127;28;20186;-63
2023/09/14 06:28:06;;;;;;;5.67;2.00;;;;;;;23.65;57.21;100844.47;5052511;28;20202;-63
2023/09/14 06:30:31;;;;;;;3.70;2.00;;;;;;;23.56;57.22;100844.00;5080774;28;20999;-65
2023/09/14 06:32:57;;;;;;;6.20;2.70;;;;;;;23.55;55.90;100832.84;5056338;28;20312;-63
2023/09/14 06:35:23;;;;;;;8.53;2.47;;;;;;;23.49;55.67;100841.03;5059861;28;20275;-64
2023/09/14 06:37:48;;;;;;;4.67;2.50;;;;;;;23.43;56.09;100836.88;5081376;28;20185;-64
2023/09/14 06:40:14;;;;;;;8.63;2.40;;;;;;;23.40;56.65;100828.22;5035905;28;20200;-64
2023/09/14 06:42:41;;;;;;;4.50;2.37;;;;;;;23.45;56.90;100845.97;5086468;28;20633;-63
2023/09/14 06:45:07;;;;;;;5.20;2.10;;;;;;;23.40;57.13;100843.47;5059321;28;20417;-63
2023/09/14 06:47:33;;;;;;;9.73;2.80;;;;;;;23.34;57.30;100844.25;5067020;28;20825;-63
2023/09/14 06:49:59;;;;;;;7.53;3.23;;;;;;;23.29;56.92;100845.44;5072070;28;20514;-63
2023/09/14 06:52:24;;;;;;;3.90;1.83;;;;;;;23.27;56.87;100842.13;5085240;28;20447;-64
2023/09/14 06:54:50;;;;;;;12.83;3.60;;;;;;;23.27;59.86;100839.25;5073342;28;20175;-64
2023/09/14 06:57:16;;;;;;;6.67;2.87;;;;;;;23.35;59.72;100846.72;5068751;28;20164;-63
2023/09/14 06:59:41;;;;;;;12.27;2.83;;;;;;;23.37;59.97;100841.38;5031415;28;20248;-64
2023/09/14 07:02:07;;;;;;;15.60;2.80;;;;;;;23.40;60.47;100839.75;5089597;28;20425;-63
2023/09/14 07:04:33;;;;;;;9.70;2.90;;;;;;;23.47;60.48;100852.16;5067639;28;20191;-63
2023/09/14 07:06:59;;;;;;;7.10;2.60;;;;;;;23.51;60.53;100844.38;5046731;28;20194;-62
2023/09/14 07:09:24;;;;;;;9.37;2.90;;;;;;;23.56;59.82;100846.03;5067689;28;20441;-63
2023/09/14 07:11:49;;;;;;;9.90;2.67;;;;;;;23.60;59.37;100841.13;5084934;28;20697;-63
2023/09/14 07:14:16;;;;;;;5.60;2.53;;;;;;;23.62;59.26;100853.06;5069659;28;20205;-63
2023/09/14 07:16:41;;;;;;;8.43;2.70;;;;;;;23.64;59.73;100851.44;5104238;28;20497;-63
2023/09/14 07:19:07;;;;;;;6.60;2.60;;;;;;;23.65;59.85;100846.50;5108928;28;20177;-63
2023/09/14 07:21:36;;;;;;;4.17;1.90;;;;;;;23.66;59.54;100851.03;5098746;28;20194;-63
2023/09/14 07:24:03;;;;;;;8.30;2.70;;;;;;;23.66;59.67;100851.03;5070678;28;20163;-63
2023/09/14 07:26:29;;;;;;;6.73;3.00;;;;;;;23.66;59.96;100849.00;5078810;28;20431;-62
2023/09/14 07:28:54;;;;;;;6.53;3.20;;;;;;;23.67;59.96;100856.41;5090129;28;20425;-62
2023/09/14 07:31:20;;;;;;;21.33;3.13;;;;;;;23.67;59.87;100850.66;5053892;28;20190;-63
2023/09/14 07:33:45;;;;;;;6.73;2.83;;;;;;;23.68;59.80;100857.25;5053919;28;20599;-63
2023/09/14 07:36:11;;;;;;;7.07;2.53;;;;;;;23.67;60.15;100849.81;5059715;28;20182;-66
2023/09/14 07:38:37;;;;;;;6.13;2.20;;;;;;;23.67;60.19;100850.66;5070167;28;20193;-66
2023/09/14 07:41:03;;;;;;;5.40;2.23;;;;;;;23.66;60.26;100849.00;5074637;28;20940;-66
2023/09/14 07:43:28;;;;;;;7.73;2.43;;;;;;;23.67;60.62;100850.66;5071563;28;20436;-66
2023/09/14 07:45:55;;;;;;;5.83;2.33;;;;;;;23.68;60.70;100858.06;5081793;28;20629;-65
2023/09/14 07:48:21;;;;;;;4.90;2.47;;;;;;;23.68;61.23;100863.81;5053405;28;20174;-66
2023/09/14 07:50:47;;;;;;;7.70;2.53;;;;;;;23.69;61.03;100859.72;5076928;28;20494;-66
2023/09/14 07:53:12;;;;;;;5.17;2.47;;;;;;;23.67;60.82;100865.06;5090617;28;20938;-66
2023/09/14 07:55:38;;;;;;;6.13;3.10;;;;;;;23.68;60.88;100868.78;5061382;28;20669;-66
2023/09/14 07:58:06;;;;;;;6.10;3.00;;;;;;;23.68;61.10;100868.78;5056694;28;20194;-66
2023/09/14 08:00:32;;;;;;;4.27;2.20;;;;;;;23.68;60.71;100860.94;5073182;28;20216;-66
2023/09/14 08:02:57;;;;;;;7.10;2.13;;;;;;;23.69;60.97;100877.00;5099884;28;20464;-65
2023/09/14 08:05:22;;;;;;;4.73;2.17;;;;;;;23.68;61.05;100875.34;5086760;28;20304;-65
2023/09/14 08:07:48;;;;;;;5.90;2.17;;;;;;;23.68;61.07;100875.34;5074212;28;20774;-66
2023/09/14 08:10:13;;;;;;;7.50;2.30;;;;;;;23.69;60.96;100876.19;5075963;28;20734;-66
2023/09/14 08:12:39;;;;;;;4.90;2.67;;;;;;;23.69;61.14;100877.00;5078956;28;20226;-66
2023/09/14 08:15:05;;;;;;;5.37;2.87;;;;;;;23.68;61.38;100881.13;5079536;28;20202;-66
2023/09/14 08:17:30;;;;;;;4.00;2.13;;;;;;;23.68;61.36;100874.56;5075182;28;20182;-66
2023/09/14 08:19:56;;;;;;;6.23;2.20;;;;;;;23.68;61.05;100878.25;5056983;28;20428;-66
2023/09/14 08:22:23;;;;;;;4.03;2.40;;;;;;;23.67;61.12;100876.59;5086053;28;20182;-65
2023/09/14 08:24:52;;;;;;;9.07;3.03;;;;;;;23.68;61.26;100878.25;5086139;28;20610;-66
2023/09/14 08:27:17;;;;;;;9.47;2.60;;;;;;;23.69;60.82;100881.97;5071995;28;20911;-65
2023/09/14 08:29:46;;;;;;;4.93;2.50;;;;;;;23.68;61.02;100881.13;5075356;28;20468;-66
2023/09/14 08:32:11;;;;;;;6.53;2.50;;;;;;;23.68;60.89;100886.88;5071977;28;20192;-66
2023/09/14 08:34:37;;;;;;;4.90;2.53;;;;;;;23.70;60.60;100890.22;5077401;28;20429;-66
2023/09/14 08:37:03;;;;;;;10.60;3.00;;;;;;;23.70;60.90;100890.22;5078456;28;20277;-66
2023/09/14 08:39:28;;;;;;;4.00;2.50;;;;;;;23.68;60.96;100878.25;5089829;28;20261;-66
2023/09/14 08:41:54;;;;;;;8.13;2.77;;;;;;;23.68;61.25;100881.13;5088261;28;20424;-66
2023/09/14 08:44:19;;;;;;;4.50;2.23;;;;;;;23.68;61.24;100886.09;5052685;28;20186;-66
2023/09/14 08:46:45;;;;;;;6.67;2.67;;;;;;;23.69;61.29;100882.78;5091223;28;20205;-66
2023/09/14 08:49:10;;;;;;;5.27;2.40;;;;;;;23.68;61.18;100881.13;5053510;28;20669;-66
2023/09/14 08:51:37;;;;;;;5.60;2.30;;;;;;;23.69;61.06;100882.78;5053329;28;20672;-65
2023/09/14 08:54:02;;;;;;;5.20;2.50;;;;;;;23.68;60.97;100881.13;5069427;28;20195;-66
2023/09/14 08:56:28;;;;;;;6.07;3.00;;;;;;;23.69;61.25;100879.88;5086491;28;20516;-66
2023/09/14 08:58:54;;;;;;;4.40;2.40;;;;;;;23.68;61.37;100875.34;5089913;28;20254;-66
2023/09/14 09:01:19;;;;;;;4.57;2.50;;;;;;;23.68;61.34;100880.31;5073492;28;20533;-66
2023/09/14 09:03:45;;;;;;;5.27;2.03;;;;;;;23.70;61.52;100875.81;5085252;28;20447;-66
2023/09/14 09:06:11;;;;;;;5.03;2.93;;;;;;;23.67;61.26;100873.72;5070266;28;20186;-66
2023/09/14 09:08:36;;;;;;;4.20;2.70;;;;;;;23.69;61.38;100873.31;5057404;28;20272;-66
2023/09/14 09:11:02;;;;;;;6.83;2.83;;;;;;;23.68;61.38;100880.31;5082414;28;20240;-66
2023/09/14 09:13:34;;;;;;;6.00;2.63;;;;;;;23.68;61.23;100875.34;5071423;28;20224;-66
2023/09/14 09:16:00;;;;;;;5.03;2.73;;;;;;;23.69;61.61;100879.09;5099159;28;20242;-66
2023/09/14 09:18:26;;;;;;;4.50;2.83;;;;;;;23.68;61.82;100881.13;5109875;28;20407;-66
2023/09/14 09:20:52;;;;;;;5.00;2.50;;;;;;;23.69;61.67;100871.25;5077208;28;20190;-66
2023/09/14 09:23:20;;;;;;;4.07;2.20;;;;;;;23.69;61.81;100874.13;5053813;28;20579;-66
2023/09/14 09:25:47;;;;;;;4.50;2.60;;;;;;;23.71;61.82;100879.50;5052582;28;20182;-66
2023/09/14 09:28:13;;;;;;;4.00;2.27;;;;;;;23.69;61.61;100877.00;5096817;28;20552;-66
2023/09/14 09:30:39;;;;;;;5.73;3.30;;;;;;;23.69;61.36;100870.44;5055493;28;20464;-66
2023/09/14 09:33:04;;;;;;;5.47;2.70;;;;;;;23.69;61.99;100870.44;5068984;28;20202;-66
2023/09/14 09:35:30;;;;;;;4.03;2.50;;;;;;;23.70;61.71;100878.69;5050977;28;20179;-66
2023/09/14 09:37:57;;;;;;;5.53;3.17;;;;;;;23.68;62.07;100878.25;5050289;28;20278;-66
2023/09/14 09:40:27;;;;;;;5.30;2.60;;;;;;;23.68;61.75;100872.47;5093853;28;20306;-66
2023/09/14 09:42:53;;;;;;;6.60;3.33;;;;;;;23.69;61.82;100877.00;5051603;28;20429;-66
2023/09/14 09:45:19;;;;;;;5.40;2.80;;;;;;;23.69;62.01;100871.25;5052624;28;20445;-66
2023/09/14 09:47:44;;;;;;;5.67;3.00;;;;;;;23.70;61.90;100864.28;5034380;28;20277;-66
2023/09/14 09:50:13;;;;;;;5.20;2.70;;;;;;;23.69;62.28;100864.66;5068743;28;20187;-66
2023/09/14 09:52:40;;;;;;;6.80;3.53;;;;;;;23.69;62.16;100864.66;5034813;28;20264;-65
2023/09/14 09:55:06;;;;;;;6.50;2.87;;;;;;;23.69;62.13;100864.66;5046756;28;20456;-65
2023/09/14 09:57:36;;;;;;;4.80;2.63;;;;;;;23.70;61.98;100855.63;5066693;28;20510;-66
2023/09/14 10:00:14;;;;;;;6.10;2.80;;;;;;;23.69;62.83;100847.38;5049598;28;20486;-66
2023/09/14 10:02:40;;;;;;;7.30;2.80;;;;;;;23.69;62.62;100853.13;5087918;28;20431;-66
2023/09/14 10:05:05;;;;;;;4.80;2.20;;;;;;;23.69;62.51;100853.13;5054743;28;20425;-66
2023/09/14 10:07:35;;;;;;;5.50;3.00;;;;;;;23.71;62.70;100853.53;5069503;28;20187;-66
2023/09/14 10:10:01;;;;;;;4.57;2.13;;;;;;;23.70;62.89;100855.63;5077680;28;20205;-65
2023/09/14 10:12:27;;;;;;;4.30;2.73;;;;;;;23.71;62.27;100845.72;5067340;28;20473;-65
2023/09/14 10:14:55;;;;;;;4.67;2.80;;;;;;;23.71;62.53;100842.84;5064060;28;20191;-65
2023/09/14 10:17:22;;;;;;;4.07;2.50;;;;;;;23.71;62.46;100839.97;5047823;28;20183;-65
2023/09/14 10:19:48;;;;;;;3.83;2.40;;;;;;;23.31;63.80;100843.00;5051133;28;20503;-65
2023/09/14 10:22:14;;;;;;;5.63;3.10;;;;;;;23.38;63.21;100848.78;5056312;28;20451;-64
2023/09/14 10:24:41;;;;;;;7.20;3.10;;;;;;;23.36;62.06;100836.84;5079269;28;20183;-64
2023/09/14 10:27:07;;;;;;;4.60;3.03;;;;;;;23.48;62.53;100841.47;5088243;28;20435;-65
2023/09/14 10:29:33;;;;;;;7.30;3.27;;;;;;;23.28;61.92;100835.13;5047666;28;20507;-65
2023/09/14 10:31:58;;;;;;;6.10;3.73;;;;;;;23.28;61.15;100838.03;5070980;28;20437;-64
2023/09/14 10:34:24;;;;;;;5.03;3.40;;;;;;;23.14;61.93;100832.09;5085274;28;20210;-65
2023/09/14 10:36:49;;;;;;;5.73;3.73;;;;;;;23.18;60.55;100826.44;5086418;28;20299;-64
2023/09/14 10:39:17;;;;;;;6.70;3.47;;;;;;;23.20;60.28;100824.81;5087961;28;20166;-64
2023/09/14 10:41:42;;;;;;;5.23;3.23;;;;;;;23.33;61.95;100823.22;5078927;28;20192;-65
2023/09/14 10:44:08;;;;;;;5.17;3.33;;;;;;;23.34;61.47;100827.75;5075374;28;21081;-64
2023/09/14 10:46:36;;;;;;;5.23;3.27;;;;;;;23.34;61.42;100819.13;5080698;28;20186;-65
2023/09/14 10:49:01;;;;;;;6.00;3.40;;;;;;;23.37;61.08;100817.50;5070223;28;20163;-64
2023/09/14 10:51:28;;;;;;;7.80;3.80;;;;;;;23.44;61.25;100817.56;5058406;28;20538;-65
2023/09/14 10:53:53;;;;;;;6.10;3.37;;;;;;;23.41;60.29;100813.41;5080355;28;20190;-64
2023/09/14 10:56:22;;;;;;;9.70;3.60;;;;;;;23.22;61.06;100816.56;5065755;28;20540;-64
2023/09/14 10:58:51;;;;;;;6.63;3.80;;;;;;;23.24;61.69;100813.31;5090296;28;21069;-64
2023/09/14 11:01:28;;;;;;;5.60;3.93;;;;;;;23.27;61.28;100810.44;5078758;28;20457;-64
2023/09/14 11:04:10;;;;;;;8.00;4.17;;;;;;;23.20;59.95;100803.81;5062192;28;20443;-65
2023/09/14 11:06:48;;;;;;;5.90;3.53;;;;;;;23.27;59.50;100807.56;5080593;28;20870;-65
2023/09/14 11:09:15;;;;;;;5.03;3.23;;;;;;;23.33;60.79;100803.06;5070672;28;20495;-65
2023/09/14 11:11:45;;;;;;;4.87;2.90;;;;;;;23.24;60.94;100791.06;5086606;28;20471;-64
2023/09/14 11:14:13;;;;;;;8.23;4.87;;;;;;;23.27;60.61;100793.16;5094931;28;21226;-64
2023/09/14 11:16:43;;;;;;;5.03;3.90;;;;;;;23.31;60.02;100785.38;5071777;28;20432;-65
2023/09/14 11:19:08;;;;;;;6.57;4.50;;;;;;;23.35;60.19;100780.47;5082902;28;20438;-64